Giebelstadt, Germany

12:59 AM CEST on May 04, 2015 (GMT +0200)
Stadtteil Rottenbauer | | Change Station
CLOSE
Current Station
Personal Weather Station
Location: Würzburg, BAYERN
Elevation: 883 ft
Nearby Weather Stations

Elev 883 ft 49.72 °N, 9.96 °E | Updated 30 seconds ago

Overcast
Overcast
59.5 °F
Feels Like 59.5 °F
N
4.0
Wind Variable Wind from SSW
Gusts 4.9 mph

Today
High -- | Low -- °F
--% Chance of Precip.
Yesterday
High -- | Low -- °F
Precip. -- in
5:53 AM 8:41 PM
Full, 100% visible
Pressure 29.77 in
Visibility 6.2 miles
Clouds Mostly Cloudy 400 ft
Mostly Cloudy 3000 ft
Overcast 11000 ft
Dew Point 58 °F
Humidity 96%
Rainfall 0.00 in
Snow Depth Not available.
UV 0.0 out of 12
Pollen Not available.
Air Quality Not available.
Flu Activity Not available.
METAR ETHN 032220Z 23007KT 9999 BKN004 BKN030 OVC110 14/14 Q1008 YLO

More Conditions Fewer Conditions

Pressure 29.77 in
Visibility 6.2 miles
Clouds Mostly Cloudy 400 ft
Mostly Cloudy 3000 ft
Overcast 11000 ft
Dew Point 58 °F
Humidity 96%
Rainfall 0.00 in
Snow Depth Not available.
UV 0.0 out of 12
Pollen Not available.
Air Quality Not available.
Flu Activity Not available.
METAR ETHN 032220Z 23007KT 9999 BKN004 BKN030 OVC110 14/14 Q1008 YLO

More Conditions Fewer Conditions

10-Day Weather Forecast

Almanac

Astronomy

May. 04, 2015 Rise Set
Actual Time
Civil Twilight
Nautical Twilight
Astronomical Twilight
Moon
Length of Visible Light
Length of Day
Tomorrow will be .
, % of the Moon is Illuminated

Today's Extremes

Country Highs Country Lows

Community

WunderPhotos

Upload Photos

1,818,402 photos uploaded!

WunderBlogs® & News

Nearby

Air Quality

  Air Quality AQ Index Pollutant
Not available.

Snow Depth

Station Depth Elevation

Earthquake Activity

City Distance Mag. Time & Date
Minimum magnitude displayed is 2.5.

Coastal Water Temperatures

Place Temperature

Stations

Nearby Weather Stations

Station Location Temp. Windchill Dew Point Humidity Wind Precip. Elev Updated Type